sensor_id;sensor_type;location;lat;lon;timestamp;temperature;humidity
69503;SHT31;56704;54.242;12.442;2023-11-19T00:02:14;3.82;91.32
69503;SHT31;56704;54.242;12.442;2023-11-19T00:04:41;3.82;91.05
69503;SHT31;56704;54.242;12.442;2023-11-19T00:07:09;3.82;91.23
69503;SHT31;56704;54.242;12.442;2023-11-19T00:09:38;3.82;91.01
69503;SHT31;56704;54.242;12.442;2023-11-19T00:12:06;3.88;90.99
69503;SHT31;56704;54.242;12.442;2023-11-19T00:14:33;3.85;91.01
69503;SHT31;56704;54.242;12.442;2023-11-19T00:16:59;3.86;91.17
69503;SHT31;56704;54.242;12.442;2023-11-19T00:19:26;3.88;91.03
69503;SHT31;56704;54.242;12.442;2023-11-19T00:21:53;3.89;91.09
69503;SHT31;56704;54.242;12.442;2023-11-19T00:24:21;3.89;91.29
69503;SHT31;56704;54.242;12.442;2023-11-19T00:26:47;3.92;91.13
69503;SHT31;56704;54.242;12.442;2023-11-19T00:29:14;3.96;91.07
69503;SHT31;56704;54.242;12.442;2023-11-19T00:31:41;3.93;91.11
69503;SHT31;56704;54.242;12.442;2023-11-19T00:34:07;3.96;91.08
69503;SHT31;56704;54.242;12.442;2023-11-19T00:36:34;4.01;91.12
69503;SHT31;56704;54.242;12.442;2023-11-19T00:39:01;3.96;90.72
69503;SHT31;56704;54.242;12.442;2023-11-19T00:41:28;4.02;90.75
69503;SHT31;56704;54.242;12.442;2023-11-19T00:43:55;4.03;90.66
69503;SHT31;56704;54.242;12.442;2023-11-19T00:46:22;4.01;90.59
69503;SHT31;56704;54.242;12.442;2023-11-19T00:48:48;4.02;90.80
69503;SHT31;56704;54.242;12.442;2023-11-19T00:51:15;3.95;90.80
69503;SHT31;56704;54.242;12.442;2023-11-19T00:53:41;3.93;91.06
69503;SHT31;56704;54.242;12.442;2023-11-19T00:56:08;3.92;91.10
69503;SHT31;56704;54.242;12.442;2023-11-19T00:58:38;3.95;91.19
69503;SHT31;56704;54.242;12.442;2023-11-19T01:01:05;3.92;91.32
69503;SHT31;56704;54.242;12.442;2023-11-19T01:03:32;3.91;91.18
69503;SHT31;56704;54.242;12.442;2023-11-19T01:05:59;3.91;91.20
69503;SHT31;56704;54.242;12.442;2023-11-19T01:08:27;3.91;91.18
69503;SHT31;56704;54.242;12.442;2023-11-19T01:10:54;3.92;91.22
69503;SHT31;56704;54.242;12.442;2023-11-19T01:13:20;3.89;91.21
69503;SHT31;56704;54.242;12.442;2023-11-19T01:15:49;3.91;91.33
69503;SHT31;56704;54.242;12.442;2023-11-19T01:18:15;3.89;91.31
69503;SHT31;56704;54.242;12.442;2023-11-19T01:20:42;3.91;91.50
69503;SHT31;56704;54.242;12.442;2023-11-19T01:23:08;3.89;91.53
69503;SHT31;56704;54.242;12.442;2023-11-19T01:25:35;3.88;91.49
69503;SHT31;56704;54.242;12.442;2023-11-19T01:28:05;3.85;91.47
69503;SHT31;56704;54.242;12.442;2023-11-19T01:30:31;3.86;91.50
69503;SHT31;56704;54.242;12.442;2023-11-19T01:32:59;3.85;91.69
69503;SHT31;56704;54.242;12.442;2023-11-19T01:35:26;3.86;91.79
69503;SHT31;56704;54.242;12.442;2023-11-19T01:37:52;3.86;91.76
69503;SHT31;56704;54.242;12.442;2023-11-19T01:40:20;3.85;91.97
69503;SHT31;56704;54.242;12.442;2023-11-19T01:42:47;3.82;92.00
69503;SHT31;56704;54.242;12.442;2023-11-19T01:45:27;3.85;92.24
69503;SHT31;56704;54.242;12.442;2023-11-19T01:47:56;3.85;92.32
69503;SHT31;56704;54.242;12.442;2023-11-19T01:50:24;3.79;92.45
69503;SHT31;56704;54.242;12.442;2023-11-19T01:52:52;3.77;92.53
69503;SHT31;56704;54.242;12.442;2023-11-19T01:55:20;3.75;92.80
69503;SHT31;56704;54.242;12.442;2023-11-19T01:57:47;3.71;92.82
69503;SHT31;56704;54.242;12.442;2023-11-19T02:00:15;3.74;92.97
69503;SHT31;56704;54.242;12.442;2023-11-19T02:02:42;3.74;93.08
69503;SHT31;56704;54.242;12.442;2023-11-19T02:05:10;3.71;93.15
69503;SHT31;56704;54.242;12.442;2023-11-19T02:07:39;3.68;93.26
69503;SHT31;56704;54.242;12.442;2023-11-19T02:10:06;3.67;93.42
69503;SHT31;56704;54.242;12.442;2023-11-19T02:12:38;3.65;93.48
69503;SHT31;56704;54.242;12.442;2023-11-19T02:15:08;3.64;93.65
69503;SHT31;56704;54.242;12.442;2023-11-19T02:17:35;3.65;93.75
69503;SHT31;56704;54.242;12.442;2023-11-19T02:20:03;3.62;93.82
69503;SHT31;56704;54.242;12.442;2023-11-19T02:22:31;3.62;93.96
69503;SHT31;56704;54.242;12.442;2023-11-19T02:25:02;3.64;94.07
69503;SHT31;56704;54.242;12.442;2023-11-19T02:27:42;3.60;94.19
69503;SHT31;56704;54.242;12.442;2023-11-19T02:30:11;3.60;94.26
69503;SHT31;56704;54.242;12.442;2023-11-19T02:32:40;3.58;94.32
69503;SHT31;56704;54.242;12.442;2023-11-19T02:35:07;3.60;94.39
69503;SHT31;56704;54.242;12.442;2023-11-19T02:37:34;3.60;94.44
69503;SHT31;56704;54.242;12.442;2023-11-19T02:40:01;3.58;94.52
69503;SHT31;56704;54.242;12.442;2023-11-19T02:42:28;3.58;94.63
69503;SHT31;56704;54.242;12.442;2023-11-19T02:44:56;3.58;94.64
69503;SHT31;56704;54.242;12.442;2023-11-19T02:47:23;3.60;94.74
69503;SHT31;56704;54.242;12.442;2023-11-19T02:49:50;3.61;94.78
69503;SHT31;56704;54.242;12.442;2023-11-19T02:52:18;3.64;94.72
69503;SHT31;56704;54.242;12.442;2023-11-19T02:54:45;3.61;94.70
69503;SHT31;56704;54.242;12.442;2023-11-19T02:57:11;3.62;94.73
69503;SHT31;56704;54.242;12.442;2023-11-19T02:59:39;3.65;94.61
69503;SHT31;56704;54.242;12.442;2023-11-19T03:02:09;3.61;94.63
69503;SHT31;56704;54.242;12.442;2023-11-19T03:04:37;3.64;94.63
69503;SHT31;56704;54.242;12.442;2023-11-19T03:07:04;3.61;94.68
69503;SHT31;56704;54.242;12.442;2023-11-19T03:09:32;3.65;94.74
69503;SHT31;56704;54.242;12.442;2023-11-19T03:11:59;3.67;94.81
69503;SHT31;56704;54.242;12.442;2023-11-19T03:14:25;3.67;94.82
69503;SHT31;56704;54.242;12.442;2023-11-19T03:16:52;3.68;94.85
69503;SHT31;56704;54.242;12.442;2023-11-19T03:19:20;3.71;94.81
69503;SHT31;56704;54.242;12.442;2023-11-19T03:21:47;3.70;94.81
69503;SHT31;56704;54.242;12.442;2023-11-19T03:24:13;3.71;94.76
69503;SHT31;56704;54.242;12.442;2023-11-19T03:26:40;3.72;94.81
69503;SHT31;56704;54.242;12.442;2023-11-19T03:29:08;3.67;94.81
69503;SHT31;56704;54.242;12.442;2023-11-19T03:31:34;3.67;94.79
69503;SHT31;56704;54.242;12.442;2023-11-19T03:34:01;3.68;94.88
69503;SHT31;56704;54.242;12.442;2023-11-19T03:36:33;3.67;94.89
69503;SHT31;56704;54.242;12.442;2023-11-19T03:39:00;3.67;95.00
69503;SHT31;56704;54.242;12.442;2023-11-19T03:41:26;3.61;95.06
69503;SHT31;56704;54.242;12.442;2023-11-19T03:43:53;3.61;95.10
69503;SHT31;56704;54.242;12.442;2023-11-19T03:46:21;3.62;95.20
69503;SHT31;56704;54.242;12.442;2023-11-19T03:48:49;3.60;95.33
69503;SHT31;56704;54.242;12.442;2023-11-19T03:51:16;3.61;95.34
69503;SHT31;56704;54.242;12.442;2023-11-19T03:53:44;3.61;95.42
69503;SHT31;56704;54.242;12.442;2023-11-19T03:56:12;3.61;95.51
69503;SHT31;56704;54.242;12.442;2023-11-19T03:58:39;3.64;95.57
69503;SHT31;56704;54.242;12.442;2023-11-19T04:01:05;3.65;95.62
69503;SHT31;56704;54.242;12.442;2023-11-19T04:03:32;3.64;95.61
69503;SHT31;56704;54.242;12.442;2023-11-19T04:05:59;3.65;95.65
69503;SHT31;56704;54.242;12.442;2023-11-19T04:08:25;3.64;95.64
69503;SHT31;56704;54.242;12.442;2023-11-19T04:10:53;3.68;95.73
69503;SHT31;56704;54.242;12.442;2023-11-19T04:13:20;3.67;95.74
69503;SHT31;56704;54.242;12.442;2023-11-19T04:15:49;3.65;95.82
69503;SHT31;56704;54.242;12.442;2023-11-19T04:18:15;3.70;95.91
69503;SHT31;56704;54.242;12.442;2023-11-19T04:20:42;3.70;95.93
69503;SHT31;56704;54.242;12.442;2023-11-19T04:23:09;3.71;95.97
69503;SHT31;56704;54.242;12.442;2023-11-19T04:25:36;3.75;95.94
69503;SHT31;56704;54.242;12.442;2023-11-19T04:28:04;3.77;96.02
69503;SHT31;56704;54.242;12.442;2023-11-19T04:30:30;3.77;96.00
69503;SHT31;56704;54.242;12.442;2023-11-19T04:32:58;3.78;96.02
69503;SHT31;56704;54.242;12.442;2023-11-19T04:35:24;3.78;96.05
69503;SHT31;56704;54.242;12.442;2023-11-19T04:37:51;3.77;96.05
69503;SHT31;56704;54.242;12.442;2023-11-19T04:40:18;3.78;96.11
69503;SHT31;56704;54.242;12.442;2023-11-19T04:42:47;3.74;96.13
69503;SHT31;56704;54.242;12.442;2023-11-19T04:45:15;3.77;96.15
69503;SHT31;56704;54.242;12.442;2023-11-19T04:47:42;3.78;96.16
69503;SHT31;56704;54.242;12.442;2023-11-19T04:50:09;3.77;96.22
69503;SHT31;56704;54.242;12.442;2023-11-19T04:52:37;3.81;96.31
69503;SHT31;56704;54.242;12.442;2023-11-19T04:55:06;3.75;96.28
69503;SHT31;56704;54.242;12.442;2023-11-19T04:57:32;3.77;96.35
69503;SHT31;56704;54.242;12.442;2023-11-19T04:59:59;3.77;96.36
69503;SHT31;56704;54.242;12.442;2023-11-19T05:02:27;3.78;96.38
69503;SHT31;56704;54.242;12.442;2023-11-19T05:04:54;3.79;96.46
69503;SHT31;56704;54.242;12.442;2023-11-19T05:07:20;3.82;96.42
69503;SHT31;56704;54.242;12.442;2023-11-19T05:09:47;3.81;96.46
69503;SHT31;56704;54.242;12.442;2023-11-19T05:12:13;3.81;96.48
69503;SHT31;56704;54.242;12.442;2023-11-19T05:14:40;3.79;96.43
69503;SHT31;56704;54.242;12.442;2023-11-19T05:17:13;3.82;96.51
69503;SHT31;56704;54.242;12.442;2023-11-19T05:19:41;3.78;96.54
69503;SHT31;56704;54.242;12.442;2023-11-19T05:22:07;3.78;96.64
69503;SHT31;56704;54.242;12.442;2023-11-19T05:24:34;3.79;96.62
69503;SHT31;56704;54.242;12.442;2023-11-19T05:27:01;3.81;96.65
69503;SHT31;56704;54.242;12.442;2023-11-19T05:29:27;3.81;96.69
69503;SHT31;56704;54.242;12.442;2023-11-19T05:31:54;3.78;96.63
69503;SHT31;56704;54.242;12.442;2023-11-19T05:34:21;3.78;96.73
69503;SHT31;56704;54.242;12.442;2023-11-19T05:36:49;3.81;96.75
69503;SHT31;56704;54.242;12.442;2023-11-19T05:39:16;3.79;96.77
69503;SHT31;56704;54.242;12.442;2023-11-19T05:41:43;3.81;96.78
69503;SHT31;56704;54.242;12.442;2023-11-19T05:44:10;3.81;96.81
69503;SHT31;56704;54.242;12.442;2023-11-19T05:46:37;3.79;96.84
69503;SHT31;56704;54.242;12.442;2023-11-19T05:49:07;3.82;96.89
69503;SHT31;56704;54.242;12.442;2023-11-19T05:51:36;3.85;96.90
69503;SHT31;56704;54.242;12.442;2023-11-19T05:54:06;3.84;96.87
69503;SHT31;56704;54.242;12.442;2023-11-19T05:56:33;3.82;96.96
69503;SHT31;56704;54.242;12.442;2023-11-19T05:59:00;3.82;96.96
69503;SHT31;56704;54.242;12.442;2023-11-19T06:01:28;3.82;96.99
69503;SHT31;56704;54.242;12.442;2023-11-19T06:03:55;3.85;96.92
69503;SHT31;56704;54.242;12.442;2023-11-19T06:06:22;3.86;96.95
69503;SHT31;56704;54.242;12.442;2023-11-19T06:08:49;3.84;96.99
69503;SHT31;56704;54.242;12.442;2023-11-19T06:11:17;3.85;97.02
69503;SHT31;56704;54.242;12.442;2023-11-19T06:13:46;3.85;96.98
69503;SHT31;56704;54.242;12.442;2023-11-19T06:16:16;3.89;97.06
69503;SHT31;56704;54.242;12.442;2023-11-19T06:18:42;3.92;97.10
69503;SHT31;56704;54.242;12.442;2023-11-19T06:21:10;3.89;97.05
69503;SHT31;56704;54.242;12.442;2023-11-19T06:23:36;3.91;97.03
69503;SHT31;56704;54.242;12.442;2023-11-19T06:26:03;3.89;97.05
69503;SHT31;56704;54.242;12.442;2023-11-19T06:28:31;3.91;97.08
69503;SHT31;56704;54.242;12.442;2023-11-19T06:30:58;3.89;97.07
69503;SHT31;56704;54.242;12.442;2023-11-19T06:33:25;3.89;97.03
69503;SHT31;56704;54.242;12.442;2023-11-19T06:35:52;3.88;97.08
69503;SHT31;56704;54.242;12.442;2023-11-19T06:38:19;3.89;97.06
69503;SHT31;56704;54.242;12.442;2023-11-19T06:40:46;3.91;97.11
69503;SHT31;56704;54.242;12.442;2023-11-19T06:43:13;3.89;97.08
69503;SHT31;56704;54.242;12.442;2023-11-19T06:45:41;3.92;97.09
69503;SHT31;56704;54.242;12.442;2023-11-19T06:48:07;3.91;97.10
69503;SHT31;56704;54.242;12.442;2023-11-19T06:50:34;3.91;97.21
69503;SHT31;56704;54.242;12.442;2023-11-19T06:53:00;3.89;97.16
69503;SHT31;56704;54.242;12.442;2023-11-19T06:55:27;3.91;97.17
69503;SHT31;56704;54.242;12.442;2023-11-19T06:57:54;3.91;97.19
69503;SHT31;56704;54.242;12.442;2023-11-19T07:00:20;3.91;97.22
69503;SHT31;56704;54.242;12.442;2023-11-19T07:02:48;3.93;97.20
69503;SHT31;56704;54.242;12.442;2023-11-19T07:05:16;3.93;97.16
69503;SHT31;56704;54.242;12.442;2023-11-19T07:07:43;3.93;97.16
69503;SHT31;56704;54.242;12.442;2023-11-19T07:10:12;3.93;97.18
69503;SHT31;56704;54.242;12.442;2023-11-19T07:12:38;3.95;97.23
69503;SHT31;56704;54.242;12.442;2023-11-19T07:15:06;3.95;97.26
69503;SHT31;56704;54.242;12.442;2023-11-19T07:17:33;3.98;97.26
69503;SHT31;56704;54.242;12.442;2023-11-19T07:20:01;3.98;97.22
69503;SHT31;56704;54.242;12.442;2023-11-19T07:22:29;4.01;97.23
69503;SHT31;56704;54.242;12.442;2023-11-19T07:24:56;3.99;97.21
69503;SHT31;56704;54.242;12.442;2023-11-19T07:27:23;3.99;97.15
69503;SHT31;56704;54.242;12.442;2023-11-19T07:29:50;3.99;97.16
69503;SHT31;56704;54.242;12.442;2023-11-19T07:32:17;3.99;97.19
69503;SHT31;56704;54.242;12.442;2023-11-19T07:34:43;3.98;97.26
69503;SHT31;56704;54.242;12.442;2023-11-19T07:37:11;3.98;97.32
69503;SHT31;56704;54.242;12.442;2023-11-19T07:39:38;3.99;97.34
69503;SHT31;56704;54.242;12.442;2023-11-19T07:42:06;4.01;97.34
69503;SHT31;56704;54.242;12.442;2023-11-19T07:44:32;3.99;97.34
69503;SHT31;56704;54.242;12.442;2023-11-19T07:46:59;4.03;97.30
69503;SHT31;56704;54.242;12.442;2023-11-19T07:49:26;4.02;97.42
69503;SHT31;56704;54.242;12.442;2023-11-19T07:51:52;4.05;97.43
69503;SHT31;56704;54.242;12.442;2023-11-19T07:54:20;4.06;97.46
69503;SHT31;56704;54.242;12.442;2023-11-19T07:56:47;4.10;97.52
69503;SHT31;56704;54.242;12.442;2023-11-19T07:59:15;4.13;97.48
69503;SHT31;56704;54.242;12.442;2023-11-19T08:01:41;4.13;97.44
69503;SHT31;56704;54.242;12.442;2023-11-19T08:04:08;4.13;97.39
69503;SHT31;56704;54.242;12.442;2023-11-19T08:06:35;4.10;97.40
69503;SHT31;56704;54.242;12.442;2023-11-19T08:09:01;4.10;97.41
69503;SHT31;56704;54.242;12.442;2023-11-19T08:11:29;4.12;97.41
69503;SHT31;56704;54.242;12.442;2023-11-19T08:13:56;4.09;97.40
69503;SHT31;56704;54.242;12.442;2023-11-19T08:16:22;4.09;97.44
69503;SHT31;56704;54.242;12.442;2023-11-19T08:18:49;4.12;97.41
69503;SHT31;56704;54.242;12.442;2023-11-19T08:21:16;4.09;97.41
69503;SHT31;56704;54.242;12.442;2023-11-19T08:23:42;4.15;97.48
69503;SHT31;56704;54.242;12.442;2023-11-19T08:26:09;4.12;97.44
69503;SHT31;56704;54.242;12.442;2023-11-19T08:28:37;4.15;97.54
69503;SHT31;56704;54.242;12.442;2023-11-19T08:31:04;4.17;97.63
69503;SHT31;56704;54.242;12.442;2023-11-19T08:33:31;4.16;97.69
69503;SHT31;56704;54.242;12.442;2023-11-19T08:35:57;4.17;97.54
69503;SHT31;56704;54.242;12.442;2023-11-19T08:38:24;4.19;97.50
69503;SHT31;56704;54.242;12.442;2023-11-19T08:40:50;4.22;97.50
69503;SHT31;56704;54.242;12.442;2023-11-19T08:43:17;4.22;97.52
69503;SHT31;56704;54.242;12.442;2023-11-19T08:45:45;4.22;97.56
69503;SHT31;56704;54.242;12.442;2023-11-19T08:48:12;4.25;97.63
69503;SHT31;56704;54.242;12.442;2023-11-19T08:50:38;4.28;97.63
69503;SHT31;56704;54.242;12.442;2023-11-19T08:53:05;4.28;97.61
69503;SHT31;56704;54.242;12.442;2023-11-19T08:55:32;4.25;97.58
69503;SHT31;56704;54.242;12.442;2023-11-19T08:57:58;4.28;97.51
69503;SHT31;56704;54.242;12.442;2023-11-19T09:00:25;4.30;97.55
69503;SHT31;56704;54.242;12.442;2023-11-19T09:02:53;4.33;97.57
69503;SHT31;56704;54.242;12.442;2023-11-19T09:05:20;4.35;97.60
69503;SHT31;56704;54.242;12.442;2023-11-19T09:07:46;4.39;97.57
69503;SHT31;56704;54.242;12.442;2023-11-19T09:10:14;4.39;97.58
69503;SHT31;56704;54.242;12.442;2023-11-19T09:12:41;4.44;97.65
69503;SHT31;56704;54.242;12.442;2023-11-19T09:15:09;4.47;97.69
69503;SHT31;56704;54.242;12.442;2023-11-19T09:17:36;4.47;97.61
69503;SHT31;56704;54.242;12.442;2023-11-19T09:20:06;4.46;97.55
69503;SHT31;56704;54.242;12.442;2023-11-19T09:22:33;4.49;97.62
69503;SHT31;56704;54.242;12.442;2023-11-19T09:24:59;4.46;97.57
69503;SHT31;56704;54.242;12.442;2023-11-19T09:27:26;4.43;97.52
69503;SHT31;56704;54.242;12.442;2023-11-19T09:29:52;4.44;97.56
69503;SHT31;56704;54.242;12.442;2023-11-19T09:32:22;4.49;97.59
69503;SHT31;56704;54.242;12.442;2023-11-19T09:34:49;4.50;97.63
69503;SHT31;56704;54.242;12.442;2023-11-19T09:37:17;4.53;97.65
69503;SHT31;56704;54.242;12.442;2023-11-19T09:39:44;4.53;97.53
69503;SHT31;56704;54.242;12.442;2023-11-19T09:42:11;4.57;97.55
69503;SHT31;56704;54.242;12.442;2023-11-19T09:44:38;4.54;97.52
69503;SHT31;56704;54.242;12.442;2023-11-19T09:47:06;4.54;97.43
69503;SHT31;56704;54.242;12.442;2023-11-19T09:49:35;4.54;97.46
69503;SHT31;56704;54.242;12.442;2023-11-19T09:52:03;4.61;97.50
69503;SHT31;56704;54.242;12.442;2023-11-19T09:54:31;4.63;97.46
69503;SHT31;56704;54.242;12.442;2023-11-19T09:56:59;4.66;97.59
69503;SHT31;56704;54.242;12.442;2023-11-19T09:59:29;4.74;97.57
69503;SHT31;56704;54.242;12.442;2023-11-19T10:01:56;4.74;97.58
69503;SHT31;56704;54.242;12.442;2023-11-19T10:04:23;4.78;97.67
69503;SHT31;56704;54.242;12.442;2023-11-19T10:06:51;4.81;97.57
69503;SHT31;56704;54.242;12.442;2023-11-19T10:09:18;4.87;97.56
69503;SHT31;56704;54.242;12.442;2023-11-19T10:11:46;4.87;97.61
69503;SHT31;56704;54.242;12.442;2023-11-19T10:14:13;4.91;97.58
69503;SHT31;56704;54.242;12.442;2023-11-19T10:16:40;4.89;97.56
69503;SHT31;56704;54.242;12.442;2023-11-19T10:19:12;4.98;97.76
69503;SHT31;56704;54.242;12.442;2023-11-19T10:21:45;5.07;97.80
69503;SHT31;56704;54.242;12.442;2023-11-19T10:24:12;5.11;97.71
69503;SHT31;56704;54.242;12.442;2023-11-19T10:26:40;5.12;97.62
69503;SHT31;56704;54.242;12.442;2023-11-19T10:29:08;5.18;97.69
69503;SHT31;56704;54.242;12.442;2023-11-19T10:31:35;5.21;97.60
69503;SHT31;56704;54.242;12.442;2023-11-19T10:34:01;5.22;97.50
69503;SHT31;56704;54.242;12.442;2023-11-19T10:36:37;5.22;97.53
69503;SHT31;56704;54.242;12.442;2023-11-19T10:39:06;5.28;97.58
69503;SHT31;56704;54.242;12.442;2023-11-19T10:41:34;5.34;97.62
69503;SHT31;56704;54.242;12.442;2023-11-19T10:44:01;5.36;97.64
69503;SHT31;56704;54.242;12.442;2023-11-19T10:46:38;5.43;97.65
69503;SHT31;56704;54.242;12.442;2023-11-19T10:49:05;5.46;97.51
69503;SHT31;56704;54.242;12.442;2023-11-19T10:51:32;5.55;97.57
69503;SHT31;56704;54.242;12.442;2023-11-19T10:54:02;5.58;97.60
69503;SHT31;56704;54.242;12.442;2023-11-19T10:56:31;5.60;97.57
69503;SHT31;56704;54.242;12.442;2023-11-19T10:58:59;5.69;97.56
69503;SHT31;56704;54.242;12.442;2023-11-19T11:01:27;5.74;97.64
69503;SHT31;56704;54.242;12.442;2023-11-19T11:03:59;5.83;97.70
69503;SHT31;56704;54.242;12.442;2023-11-19T11:06:27;5.91;97.71
69503;SHT31;56704;54.242;12.442;2023-11-19T11:08:54;5.97;97.70
69503;SHT31;56704;54.242;12.442;2023-11-19T11:11:21;6.04;97.74
69503;SHT31;56704;54.242;12.442;2023-11-19T11:13:49;6.11;97.73
69503;SHT31;56704;54.242;12.442;2023-11-19T11:16:18;6.24;97.76
69503;SHT31;56704;54.242;12.442;2023-11-19T11:18:45;6.30;97.76
69503;SHT31;56704;54.242;12.442;2023-11-19T11:21:19;6.45;97.83
69503;SHT31;56704;54.242;12.442;2023-11-19T11:24:00;6.55;97.80
69503;SHT31;56704;54.242;12.442;2023-11-19T11:26:50;6.67;97.77
69503;SHT31;56704;54.242;12.442;2023-11-19T11:29:26;6.85;97.82
69503;SHT31;56704;54.242;12.442;2023-11-19T11:32:15;7.03;97.93
69503;SHT31;56704;54.242;12.442;2023-11-19T11:35:00;7.40;98.09
69503;SHT31;56704;54.242;12.442;2023-11-19T11:37:33;7.70;98.11
69503;SHT31;56704;54.242;12.442;2023-11-19T11:40:01;7.85;98.00
69503;SHT31;56704;54.242;12.442;2023-11-19T11:42:34;8.02;97.88
69503;SHT31;56704;54.242;12.442;2023-11-19T11:45:03;8.15;97.80
69503;SHT31;56704;54.242;12.442;2023-11-19T11:50:54;8.52;97.75
69503;SHT31;56704;54.242;12.442;2023-11-19T11:53:23;8.66;97.59
69503;SHT31;56704;54.242;12.442;2023-11-19T11:55:57;8.73;97.43
69503;SHT31;56704;54.242;12.442;2023-11-19T11:58:30;8.70;97.37
69503;SHT31;56704;54.242;12.442;2023-11-19T12:00:58;8.77;97.30
69503;SHT31;56704;54.242;12.442;2023-11-19T12:03:27;8.80;97.30
69503;SHT31;56704;54.242;12.442;2023-11-19T12:05:54;8.87;97.32
69503;SHT31;56704;54.242;12.442;2023-11-19T12:08:26;8.96;97.23
69503;SHT31;56704;54.242;12.442;2023-11-19T12:10:54;9.08;97.11
69503;SHT31;56704;54.242;12.442;2023-11-19T12:13:23;9.15;97.15
69503;SHT31;56704;54.242;12.442;2023-11-19T12:16:09;9.24;97.14
69503;SHT31;56704;54.242;12.442;2023-11-19T12:18:38;9.32;97.08
69503;SHT31;56704;54.242;12.442;2023-11-19T12:21:05;9.49;96.95
69503;SHT31;56704;54.242;12.442;2023-11-19T12:23:44;9.63;96.82
69503;SHT31;56704;54.242;12.442;2023-11-19T12:26:35;9.72;96.76
69503;SHT31;56704;54.242;12.442;2023-11-19T12:29:02;9.83;96.73
69503;SHT31;56704;54.242;12.442;2023-11-19T12:31:31;9.89;96.71
69503;SHT31;56704;54.242;12.442;2023-11-19T12:34:12;9.99;96.46
69503;SHT31;56704;54.242;12.442;2023-11-19T12:36:40;10.14;96.31
69503;SHT31;56704;54.242;12.442;2023-11-19T12:39:09;10.21;96.26
69503;SHT31;56704;54.242;12.442;2023-11-19T12:41:49;10.37;96.15
69503;SHT31;56704;54.242;12.442;2023-11-19T12:44:16;10.51;95.94
69503;SHT31;56704;54.242;12.442;2023-11-19T12:46:43;10.58;95.63
69503;SHT31;56704;54.242;12.442;2023-11-19T12:52:12;10.64;95.21
69503;SHT31;56704;54.242;12.442;2023-11-19T12:58:02;10.64;94.65
69503;SHT31;56704;54.242;12.442;2023-11-19T13:00:32;10.65;94.52
69503;SHT31;56704;54.242;12.442;2023-11-19T13:03:04;10.74;94.39
69503;SHT31;56704;54.242;12.442;2023-11-19T13:05:32;10.74;94.47
69503;SHT31;56704;54.242;12.442;2023-11-19T13:08:21;10.69;94.32
69503;SHT31;56704;54.242;12.442;2023-11-19T13:11:04;10.67;93.98
69503;SHT31;56704;54.242;12.442;2023-11-19T13:13:56;10.65;94.02
69503;SHT31;56704;54.242;12.442;2023-11-19T13:16:23;10.69;94.05
69503;SHT31;56704;54.242;12.442;2023-11-19T13:18:51;10.78;94.00
69503;SHT31;56704;54.242;12.442;2023-11-19T13:21:22;10.81;93.91
69503;SHT31;56704;54.242;12.442;2023-11-19T13:24:02;10.79;93.85
69503;SHT31;56704;54.242;12.442;2023-11-19T13:26:28;10.78;93.98
69503;SHT31;56704;54.242;12.442;2023-11-19T13:28:56;10.74;93.88
69503;SHT31;56704;54.242;12.442;2023-11-19T13:31:23;10.78;93.55
69503;SHT31;56704;54.242;12.442;2023-11-19T13:33:52;10.79;93.73
69503;SHT31;56704;54.242;12.442;2023-11-19T13:36:22;10.77;93.61
69503;SHT31;56704;54.242;12.442;2023-11-19T13:38:50;10.74;93.55
69503;SHT31;56704;54.242;12.442;2023-11-19T13:41:26;10.74;93.42
69503;SHT31;56704;54.242;12.442;2023-11-19T13:44:14;10.77;93.55
69503;SHT31;56704;54.242;12.442;2023-11-19T13:46:40;10.74;93.18
69503;SHT31;56704;54.242;12.442;2023-11-19T13:49:07;10.77;92.99
69503;SHT31;56704;54.242;12.442;2023-11-19T13:51:34;10.78;93.09
69503;SHT31;56704;54.242;12.442;2023-11-19T13:54:01;10.77;93.12
69503;SHT31;56704;54.242;12.442;2023-11-19T13:56:27;10.78;93.00
69503;SHT31;56704;54.242;12.442;2023-11-19T13:58:54;10.81;92.60
69503;SHT31;56704;54.242;12.442;2023-11-19T14:01:22;10.79;92.54
69503;SHT31;56704;54.242;12.442;2023-11-19T14:03:47;10.77;92.37
69503;SHT31;56704;54.242;12.442;2023-11-19T14:06:14;10.78;92.39
69503;SHT31;56704;54.242;12.442;2023-11-19T14:08:41;10.74;92.28
69503;SHT31;56704;54.242;12.442;2023-11-19T14:11:07;10.69;92.31
69503;SHT31;56704;54.242;12.442;2023-11-19T14:13:34;10.75;91.99
69503;SHT31;56704;54.242;12.442;2023-11-19T14:16:01;10.71;92.12
69503;SHT31;56704;54.242;12.442;2023-11-19T14:18:29;10.72;92.08
69503;SHT31;56704;54.242;12.442;2023-11-19T14:20:55;10.71;92.24
69503;SHT31;56704;54.242;12.442;2023-11-19T14:23:23;10.69;92.43
69503;SHT31;56704;54.242;12.442;2023-11-19T14:25:51;10.64;92.65
69503;SHT31;56704;54.242;12.442;2023-11-19T14:28:17;10.61;92.91
69503;SHT31;56704;54.242;12.442;2023-11-19T14:30:44;10.57;93.13
69503;SHT31;56704;54.242;12.442;2023-11-19T14:33:13;10.55;93.07
69503;SHT31;56704;54.242;12.442;2023-11-19T14:35:41;10.53;93.04
69503;SHT31;56704;54.242;12.442;2023-11-19T14:38:07;10.57;92.99
69503;SHT31;56704;54.242;12.442;2023-11-19T14:40:35;10.51;93.09
69503;SHT31;56704;54.242;12.442;2023-11-19T14:43:01;10.53;92.85
69503;SHT31;56704;54.242;12.442;2023-11-19T14:45:28;10.51;92.97
69503;SHT31;56704;54.242;12.442;2023-11-19T14:47:55;10.55;92.73
69503;SHT31;56704;54.242;12.442;2023-11-19T14:50:22;10.51;92.82
69503;SHT31;56704;54.242;12.442;2023-11-19T14:52:50;10.54;93.02
69503;SHT31;56704;54.242;12.442;2023-11-19T14:55:22;10.48;92.84
69503;SHT31;56704;54.242;12.442;2023-11-19T14:57:49;10.47;92.99
69503;SHT31;56704;54.242;12.442;2023-11-19T15:00:16;10.48;93.09
69503;SHT31;56704;54.242;12.442;2023-11-19T15:02:43;10.47;92.87
69503;SHT31;56704;54.242;12.442;2023-11-19T15:05:10;10.48;93.16
69503;SHT31;56704;54.242;12.442;2023-11-19T15:07:36;10.51;92.23
69503;SHT31;56704;54.242;12.442;2023-11-19T15:10:06;10.51;92.43
69503;SHT31;56704;54.242;12.442;2023-11-19T15:12:36;10.51;92.27
69503;SHT31;56704;54.242;12.442;2023-11-19T15:15:07;10.55;92.11
69503;SHT31;56704;54.242;12.442;2023-11-19T15:17:35;10.51;92.32
69503;SHT31;56704;54.242;12.442;2023-11-19T15:20:02;10.48;92.25
69503;SHT31;56704;54.242;12.442;2023-11-19T15:22:29;10.48;92.50
69503;SHT31;56704;54.242;12.442;2023-11-19T15:24:56;10.45;92.56
69503;SHT31;56704;54.242;12.442;2023-11-19T15:27:24;10.43;92.53
69503;SHT31;56704;54.242;12.442;2023-11-19T15:29:51;10.40;92.68
69503;SHT31;56704;54.242;12.442;2023-11-19T15:32:17;10.40;92.72
69503;SHT31;56704;54.242;12.442;2023-11-19T15:34:44;10.34;92.82
69503;SHT31;56704;54.242;12.442;2023-11-19T15:37:11;10.30;92.96
69503;SHT31;56704;54.242;12.442;2023-11-19T15:39:39;10.30;93.04
69503;SHT31;56704;54.242;12.442;2023-11-19T15:42:06;10.30;92.97
69503;SHT31;56704;54.242;12.442;2023-11-19T15:44:37;10.34;92.56